THA531 VTBS-LIMC
Flight info
| Callsign | THA531 |
|---|---|
| Flight time | N/A |
| Altitude | 34000 |
| Route | TARED1J TARED P646 PUPAM/N0502F360 P646 BBN R460 LKN M890 SULOM L509 TAPIS M875 AMDAR/K0915F360 T186 TRZ/K0906F380 T186 INDUD Z777 MANAT/N0487F380 R226 AKRAM A477 BABUM A909 RODAR N644 TETRO M10 SARPI UM10 GOKPA/N0491F400 UM10 TIVUG UL852 NEGEM Q8 DOLAP DCT VEBAR DCT ETOBI DCT PEVAL DCT VIC/N0484F410 DCT ADOSA DCT IDREK DCT ELTAR DCT NOBMI DCT NEVNI DCT OSKOR DCT LEGLO DCT PEXUG |
| Aircraft | A359/H-SDE2E3GHIJ3J4J5LM1ORWXY/LB1D1 |
Departure
| Time | N/A |
|---|---|
| Airport | Suvarnabhumi Airport (VTBS) |
Arrival
| Time | 2026-05-05 07:18 |
|---|---|
| Airport | Milan Malpensa International Airport (LIMC) |
| Time | Latitude | Longitude | Altitude | Speed | Heading |
|---|---|---|---|---|---|
| 2026-05-05 06:17 | 44.56585 | 17.04102 | 40055 ft | 453 kts | 284° |
| 2026-05-05 06:17 | 44.57397 | 16.99821 | 40048 ft | 453 kts | 284° |
| 2026-05-05 06:17 | 44.58936 | 16.91677 | 40048 ft | 453 kts | 284° |
| 2026-05-05 06:18 | 44.60672 | 16.83168 | 40047 ft | 453 kts | 286° |
| 2026-05-05 06:18 | 44.62531 | 16.74703 | 40048 ft | 453 kts | 286° |
| 2026-05-05 06:19 | 44.64361 | 16.66297 | 40050 ft | 453 kts | 285° |
| 2026-05-05 06:19 | 44.66177 | 16.57797 | 40051 ft | 453 kts | 285° |
| 2026-05-05 06:20 | 44.67973 | 16.49304 | 40051 ft | 453 kts | 285° |
| 2026-05-05 06:20 | 44.69763 | 16.40793 | 40051 ft | 454 kts | 285° |
| 2026-05-05 06:21 | 44.71533 | 16.32324 | 40051 ft | 454 kts | 285° |
| 2026-05-05 06:21 | 44.73315 | 16.23805 | 40052 ft | 454 kts | 285° |
| 2026-05-05 06:22 | 44.75092 | 16.15280 | 40049 ft | 454 kts | 285° |
| 2026-05-05 06:22 | 44.76860 | 16.06751 | 40049 ft | 454 kts | 284° |
| 2026-05-05 06:23 | 44.78629 | 15.98175 | 40048 ft | 455 kts | 284° |
| 2026-05-05 06:23 | 44.80386 | 15.89622 | 40047 ft | 455 kts | 284° |
| 2026-05-05 06:24 | 44.82126 | 15.81114 | 40048 ft | 455 kts | 284° |
| 2026-05-05 06:24 | 44.83874 | 15.72530 | 40049 ft | 456 kts | 284° |
| 2026-05-05 06:25 | 44.85608 | 15.63982 | 40045 ft | 457 kts | 284° |
| 2026-05-05 06:25 | 44.87352 | 15.55348 | 40045 ft | 457 kts | 284° |
| 2026-05-05 06:26 | 44.89085 | 15.46732 | 40045 ft | 457 kts | 284° |
| 2026-05-05 06:26 | 44.90812 | 15.38101 | 40049 ft | 457 kts | 284° |
| 2026-05-05 06:27 | 44.93396 | 15.25123 | 40051 ft | 458 kts | 284° |
| 2026-05-05 06:28 | 44.95111 | 15.16462 | 40048 ft | 458 kts | 284° |
| 2026-05-05 06:28 | 44.96712 | 15.08342 | 40055 ft | 458 kts | 284° |
| 2026-05-05 06:29 | 44.98302 | 15.00248 | 40048 ft | 458 kts | 284° |
| 2026-05-05 06:29 | 44.99995 | 14.91589 | 40058 ft | 458 kts | 284° |
| 2026-05-05 06:30 | 45.01669 | 14.82983 | 40057 ft | 458 kts | 284° |
| 2026-05-05 06:30 | 45.03355 | 14.74279 | 40066 ft | 458 kts | 283° |
| 2026-05-05 06:31 | 45.05032 | 14.65586 | 40069 ft | 458 kts | 283° |
| 2026-05-05 06:31 | 45.06704 | 14.56876 | 40075 ft | 459 kts | 283° |
| 2026-05-05 06:32 | 45.08373 | 14.48145 | 40072 ft | 459 kts | 283° |
| 2026-05-05 06:32 | 45.10023 | 14.39475 | 40068 ft | 459 kts | 283° |
| 2026-05-05 06:33 | 45.11680 | 14.30728 | 40070 ft | 459 kts | 283° |
| 2026-05-05 06:33 | 45.13328 | 14.21984 | 40062 ft | 459 kts | 283° |
| 2026-05-05 06:34 | 45.14970 | 14.13237 | 40056 ft | 459 kts | 283° |
| 2026-05-05 06:34 | 45.16605 | 14.04483 | 40048 ft | 459 kts | 283° |
| 2026-05-05 06:35 | 45.18233 | 13.95727 | 40047 ft | 459 kts | 283° |
| 2026-05-05 06:35 | 45.19847 | 13.87005 | 40039 ft | 460 kts | 283° |
| 2026-05-05 06:36 | 45.21466 | 13.78212 | 40032 ft | 460 kts | 283° |
| 2026-05-05 06:36 | 45.23078 | 13.69422 | 40029 ft | 460 kts | 283° |
| 2026-05-05 06:37 | 45.24672 | 13.60687 | 40039 ft | 460 kts | 282° |
| 2026-05-05 06:37 | 45.26270 | 13.51882 | 40023 ft | 461 kts | 282° |
| 2026-05-05 06:38 | 45.27712 | 13.43904 | 40024 ft | 461 kts | 282° |
| 2026-05-05 06:38 | 45.28918 | 13.37205 | 40016 ft | 461 kts | 282° |
| 2026-05-05 06:39 | 45.30273 | 13.29651 | 40016 ft | 461 kts | 282° |
| 2026-05-05 06:39 | 45.31881 | 13.20829 | 40019 ft | 462 kts | 284° |
| 2026-05-05 06:40 | 45.33748 | 13.12135 | 40019 ft | 463 kts | 285° |
| 2026-05-05 06:40 | 45.35693 | 13.03388 | 40011 ft | 463 kts | 285° |
| 2026-05-05 06:41 | 45.37594 | 12.94631 | 40005 ft | 463 kts | 285° |
| 2026-05-05 06:41 | 45.39459 | 12.85857 | 40006 ft | 463 kts | 284° |
| 2026-05-05 06:42 | 45.41300 | 12.77119 | 40003 ft | 464 kts | 284° |
| 2026-05-05 06:42 | 45.43147 | 12.68317 | 40010 ft | 464 kts | 284° |
| 2026-05-05 06:43 | 45.44993 | 12.59495 | 40013 ft | 464 kts | 284° |
| 2026-05-05 06:43 | 45.46828 | 12.50686 | 40027 ft | 464 kts | 284° |
| 2026-05-05 06:44 | 45.48657 | 12.41870 | 40016 ft | 464 kts | 284° |
| 2026-05-05 06:44 | 45.50480 | 12.33046 | 40019 ft | 464 kts | 284° |
| 2026-05-05 06:45 | 45.52297 | 12.24207 | 40022 ft | 464 kts | 284° |
| 2026-05-05 06:45 | 45.54109 | 12.15356 | 40041 ft | 464 kts | 284° |
| 2026-05-05 06:46 | 45.55913 | 12.06502 | 40016 ft | 464 kts | 283° |
| 2026-05-05 06:46 | 45.57697 | 11.97709 | 40022 ft | 464 kts | 283° |
| 2026-05-05 06:47 | 45.59486 | 11.88840 | 40007 ft | 464 kts | 283° |
| 2026-05-05 06:47 | 45.61270 | 11.79975 | 40010 ft | 464 kts | 283° |
| 2026-05-05 06:48 | 45.63027 | 11.71077 | 39989 ft | 464 kts | 281° |
| 2026-05-05 06:48 | 45.63797 | 11.62025 | 39986 ft | 460 kts | 270° |
| 2026-05-05 06:49 | 45.63983 | 11.52883 | 39985 ft | 460 kts | 269° |
| 2026-05-05 06:49 | 45.64048 | 11.46259 | 39983 ft | 460 kts | 269° |
| 2026-05-05 06:50 | 45.64123 | 11.37543 | 40100 ft | 461 kts | 269° |
| 2026-05-05 06:50 | 45.64166 | 11.32970 | 40211 ft | 461 kts | 269° |
| 2026-05-05 06:51 | 45.64211 | 11.28387 | 40350 ft | 461 kts | 269° |
| 2026-05-05 06:51 | 45.64257 | 11.23866 | 40476 ft | 460 kts | 269° |
| 2026-05-05 06:51 | 45.64301 | 11.19286 | 40582 ft | 461 kts | 269° |
| 2026-05-05 06:51 | 45.64344 | 11.14704 | 40696 ft | 461 kts | 269° |
| 2026-05-05 06:52 | 45.64386 | 11.10107 | 40808 ft | 461 kts | 269° |
| 2026-05-05 06:52 | 45.64465 | 11.00929 | 40973 ft | 462 kts | 269° |
| 2026-05-05 06:53 | 45.64545 | 10.91721 | 40975 ft | 463 kts | 269° |
| 2026-05-05 06:53 | 45.64614 | 10.82499 | 40982 ft | 464 kts | 269° |
| 2026-05-05 06:54 | 45.64686 | 10.73269 | 40991 ft | 464 kts | 269° |
| 2026-05-05 06:54 | 45.64750 | 10.64106 | 40398 ft | 459 kts | 269° |
| 2026-05-05 06:54 | 45.64781 | 10.59539 | 39767 ft | 459 kts | 269° |
| 2026-05-05 06:55 | 45.64688 | 10.55025 | 39131 ft | 458 kts | 262° |
| 2026-05-05 06:55 | 45.64168 | 10.50540 | 38499 ft | 456 kts | 255° |
| 2026-05-05 06:55 | 45.63409 | 10.46129 | 37752 ft | 455 kts | 254° |
| 2026-05-05 06:55 | 45.62610 | 10.41743 | 36993 ft | 456 kts | 253° |
| 2026-05-05 06:56 | 45.61811 | 10.37378 | 36238 ft | 456 kts | 253° |
| 2026-05-05 06:56 | 45.61018 | 10.33029 | 35523 ft | 456 kts | 253° |
| 2026-05-05 06:56 | 45.60217 | 10.28610 | 34774 ft | 457 kts | 253° |
| 2026-05-05 06:56 | 45.59424 | 10.24209 | 34095 ft | 457 kts | 253° |
| 2026-05-05 06:57 | 45.58643 | 10.19843 | 33711 ft | 449 kts | 253° |
| 2026-05-05 06:57 | 45.57897 | 10.15592 | 33434 ft | 440 kts | 253° |
| 2026-05-05 06:57 | 45.57180 | 10.11371 | 33165 ft | 431 kts | 253° |
| 2026-05-05 06:57 | 45.56492 | 10.07289 | 32905 ft | 422 kts | 253° |
| 2026-05-05 06:58 | 45.55807 | 10.03215 | 32465 ft | 417 kts | 253° |
| 2026-05-05 06:58 | 45.55138 | 9.99225 | 31972 ft | 414 kts | 253° |
| 2026-05-05 06:58 | 45.54478 | 9.95281 | 31644 ft | 407 kts | 253° |
| 2026-05-05 06:58 | 45.53819 | 9.91342 | 31190 ft | 404 kts | 253° |
| 2026-05-05 06:59 | 45.53171 | 9.87437 | 30744 ft | 401 kts | 253° |
| 2026-05-05 06:59 | 45.52534 | 9.83608 | 30312 ft | 397 kts | 253° |
| 2026-05-05 06:59 | 45.51900 | 9.79815 | 29826 ft | 396 kts | 253° |
| 2026-05-05 06:59 | 45.51258 | 9.75984 | 29350 ft | 395 kts | 253° |
| 2026-05-05 07:00 | 45.50634 | 9.72163 | 28951 ft | 395 kts | 253° |
| 2026-05-05 07:00 | 45.50017 | 9.68353 | 28454 ft | 393 kts | 253° |
| 2026-05-05 07:00 | 45.49402 | 9.64565 | 27932 ft | 392 kts | 253° |
| 2026-05-05 07:00 | 45.48788 | 9.60803 | 27422 ft | 390 kts | 253° |
| 2026-05-05 07:01 | 45.48174 | 9.57059 | 26923 ft | 389 kts | 253° |
| 2026-05-05 07:01 | 45.47553 | 9.53298 | 26415 ft | 388 kts | 253° |
| 2026-05-05 07:01 | 45.46933 | 9.49556 | 25956 ft | 385 kts | 253° |
| 2026-05-05 07:01 | 45.46321 | 9.45877 | 25515 ft | 382 kts | 253° |
| 2026-05-05 07:02 | 45.45713 | 9.42233 | 25074 ft | 379 kts | 253° |
| 2026-05-05 07:02 | 45.45098 | 9.38560 | 24633 ft | 377 kts | 253° |
| 2026-05-05 07:02 | 45.44496 | 9.34977 | 24114 ft | 374 kts | 253° |
| 2026-05-05 07:02 | 45.43889 | 9.31381 | 23704 ft | 371 kts | 253° |
| 2026-05-05 07:03 | 45.43286 | 9.27831 | 23247 ft | 368 kts | 253° |
| 2026-05-05 07:03 | 45.42682 | 9.24282 | 22754 ft | 365 kts | 253° |
| 2026-05-05 07:03 | 45.42090 | 9.20816 | 22284 ft | 362 kts | 253° |
| 2026-05-05 07:03 | 45.41477 | 9.17335 | 21797 ft | 358 kts | 251° |
| 2026-05-05 07:04 | 45.40431 | 9.14221 | 21336 ft | 349 kts | 232° |
| 2026-05-05 07:04 | 45.38723 | 9.11828 | 20870 ft | 343 kts | 213° |
| 2026-05-05 07:04 | 45.36674 | 9.10080 | 20427 ft | 341 kts | 209° |
| 2026-05-05 07:04 | 45.34606 | 9.08487 | 19987 ft | 338 kts | 208° |
| 2026-05-05 07:05 | 45.32522 | 9.06909 | 19543 ft | 336 kts | 208° |
| 2026-05-05 07:05 | 45.30480 | 9.05375 | 19119 ft | 333 kts | 208° |
| 2026-05-05 07:05 | 45.28423 | 9.03842 | 18679 ft | 331 kts | 208° |
| 2026-05-05 07:05 | 45.26407 | 9.02351 | 18259 ft | 328 kts | 208° |
| 2026-05-05 07:06 | 45.24365 | 9.00854 | 17761 ft | 326 kts | 208° |
| 2026-05-05 07:06 | 45.22247 | 8.99823 | 17288 ft | 325 kts | 190° |
| 2026-05-05 07:06 | 45.20199 | 8.99907 | 16870 ft | 327 kts | 172° |
| 2026-05-05 07:06 | 45.18004 | 9.00624 | 16410 ft | 326 kts | 169° |
| 2026-05-05 07:07 | 45.15894 | 9.01414 | 15968 ft | 323 kts | 168° |
| 2026-05-05 07:07 | 45.13706 | 9.02033 | 15524 ft | 318 kts | 178° |
| 2026-05-05 07:07 | 45.11757 | 9.01977 | 15118 ft | 308 kts | 192° |
| 2026-05-05 07:07 | 45.10206 | 9.01198 | 14770 ft | 293 kts | 212° |
| 2026-05-05 07:08 | 45.08809 | 8.99367 | 14336 ft | 279 kts | 236° |
| 2026-05-05 07:08 | 45.08142 | 8.96839 | 13910 ft | 276 kts | 261° |
| 2026-05-05 07:08 | 45.08302 | 8.94306 | 13491 ft | 284 kts | 284° |
| 2026-05-05 07:08 | 45.09272 | 8.91866 | 13017 ft | 291 kts | 303° |
| 2026-05-05 07:09 | 45.10565 | 8.89640 | 12420 ft | 291 kts | 306° |
| 2026-05-05 07:09 | 45.11917 | 8.87540 | 11809 ft | 290 kts | 314° |
| 2026-05-05 07:09 | 45.13715 | 8.86222 | 11243 ft | 296 kts | 342° |
| 2026-05-05 07:09 | 45.15683 | 8.85637 | 10657 ft | 296 kts | 347° |
| 2026-05-05 07:10 | 45.17707 | 8.85139 | 10080 ft | 294 kts | 347° |
| 2026-05-05 07:10 | 45.19714 | 8.84633 | 9476 ft | 292 kts | 347° |
| 2026-05-05 07:10 | 45.21732 | 8.84354 | 8859 ft | 294 kts | 6° |
| 2026-05-05 07:10 | 45.23746 | 8.84729 | 8243 ft | 292 kts | 356° |
| 2026-05-05 07:11 | 45.25723 | 8.84092 | 7685 ft | 291 kts | 340° |
| 2026-05-05 07:11 | 45.27608 | 8.83209 | 7190 ft | 284 kts | 343° |
| 2026-05-05 07:11 | 45.29506 | 8.82536 | 6829 ft | 277 kts | 349° |
| 2026-05-05 07:11 | 45.31402 | 8.82029 | 6549 ft | 274 kts | 351° |
| 2026-05-05 07:12 | 45.33255 | 8.81546 | 6302 ft | 270 kts | 350° |
| 2026-05-05 07:12 | 45.35077 | 8.81037 | 6029 ft | 266 kts | 350° |
| 2026-05-05 07:12 | 45.36885 | 8.80536 | 5710 ft | 262 kts | 351° |
| 2026-05-05 07:12 | 45.38660 | 8.80053 | 5380 ft | 260 kts | 351° |
| 2026-05-05 07:13 | 45.40422 | 8.79570 | 5019 ft | 260 kts | 352° |
| 2026-05-05 07:13 | 45.42200 | 8.79083 | 4672 ft | 259 kts | 352° |
| 2026-05-05 07:13 | 45.43873 | 8.78624 | 4286 ft | 253 kts | 352° |
| 2026-05-05 07:13 | 45.45565 | 8.78156 | 3948 ft | 239 kts | 351° |
| 2026-05-05 07:14 | 45.47126 | 8.77728 | 3644 ft | 224 kts | 351° |
| 2026-05-05 07:14 | 45.48601 | 8.77322 | 3381 ft | 207 kts | 351° |
| 2026-05-05 07:14 | 45.49971 | 8.76943 | 3084 ft | 194 kts | 352° |
| 2026-05-05 07:14 | 45.51249 | 8.76595 | 2831 ft | 180 kts | 351° |
| 2026-05-05 07:15 | 45.52436 | 8.76267 | 2573 ft | 166 kts | 351° |
| 2026-05-05 07:15 | 45.53538 | 8.75962 | 2376 ft | 159 kts | 350° |
| 2026-05-05 07:15 | 45.54610 | 8.75669 | 2170 ft | 157 kts | 349° |
| 2026-05-05 07:15 | 45.55668 | 8.75377 | 1946 ft | 155 kts | 350° |
| 2026-05-05 07:16 | 45.56688 | 8.75095 | 1755 ft | 143 kts | 349° |
| 2026-05-05 07:16 | 45.57631 | 8.74835 | 1550 ft | 134 kts | 349° |
| 2026-05-05 07:16 | 45.58543 | 8.74583 | 1367 ft | 134 kts | 349° |
| 2026-05-05 07:16 | 45.59458 | 8.74329 | 1168 ft | 134 kts | 349° |
| 2026-05-05 07:17 | 45.60384 | 8.74074 | 993 ft | 137 kts | 350° |
| 2026-05-05 07:17 | 45.61310 | 8.73825 | 815 ft | 133 kts | 348° |
| 2026-05-05 07:17 | 45.62199 | 8.73578 | 749 ft | 121 kts | 350° |
| 2026-05-05 07:17 | 45.62916 | 8.73378 | 746 ft | 92 kts | 349° |
| 2026-05-05 07:18 | 45.63470 | 8.73226 | 749 ft | 69 kts | 349° |
| 2026-05-05 07:18 | 45.63739 | 8.73056 | 751 ft | 33 kts | 317° |
| 2026-05-05 07:18 | 45.63861 | 8.72812 | 754 ft | 28 kts | 304° |
| 2026-05-05 07:18 | 45.63952 | 8.72601 | 753 ft | 18 kts | 283° |
| 2026-05-05 07:19 | 45.63942 | 8.72456 | 755 ft | 14 kts | 259° |
| 2026-05-05 07:19 | 45.63924 | 8.72321 | 755 ft | 14 kts | 259° |
| 2026-05-05 07:19 | 45.63915 | 8.72177 | 751 ft | 18 kts | 266° |
| 2026-05-05 07:19 | 45.63906 | 8.71966 | 749 ft | 22 kts | 263° |
| 2026-05-05 07:20 | 45.63822 | 8.71832 | 754 ft | 17 kts | 193° |
| 2026-05-05 07:20 | 45.63697 | 8.71853 | 754 ft | 22 kts | 169° |
| 2026-05-05 07:20 | 45.63521 | 8.71901 | 753 ft | 28 kts | 169° |
| 2026-05-05 07:20 | 45.63332 | 8.71951 | 755 ft | 27 kts | 169° |
| 2026-05-05 07:21 | 45.63153 | 8.72000 | 755 ft | 26 kts | 169° |
| 2026-05-05 07:21 | 45.62982 | 8.72049 | 754 ft | 24 kts | 168° |
| 2026-05-05 07:21 | 45.62817 | 8.72097 | 755 ft | 23 kts | 168° |
| 2026-05-05 07:21 | 45.62709 | 8.72107 | 756 ft | 1 kts | 204° |
| 2026-05-05 07:22 | 45.62682 | 8.72070 | 753 ft | 10 kts | 232° |
| 2026-05-05 07:22 | 45.62666 | 8.71992 | 753 ft | 7 kts | 262° |
| 2026-05-05 07:22 | 45.62659 | 8.71917 | 755 ft | 8 kts | 262° |
| 2026-05-05 07:22 | 45.62642 | 8.71782 | 758 ft | 20 kts | 259° |
| 2026-05-05 07:23 | 45.62617 | 8.71584 | 756 ft | 15 kts | 259° |
| 2026-05-05 07:23 | 45.62614 | 8.71523 | 754 ft | 3 kts | 283° |
| 2026-05-05 07:23 | 45.62626 | 8.71499 | 755 ft | 6 kts | 310° |
| 2026-05-05 07:23 | 45.62647 | 8.71484 | 756 ft | 1 kts | 345° |
| 2026-05-05 07:24 | 45.62680 | 8.71488 | 755 ft | 4 kts | 11° |
| 2026-05-05 07:24 | 45.62684 | 8.71489 | 756 ft | 0 kts | 11° |